Weather at Bob Hope Airport

Public forecast

Using degrees Fahrenheit for public forecast. Weather courtesy of forecast.io.

Current aviation weather report (METAR) for Bob Hope Airport

Retrieved 2021/02/27 05:53 UTC (14 minutes ago):

KBUR 270553Z 16005KT 10SM CLR 14/M01 A2992 RMK AO2 SLP122 T01441011 10217 20144 53007

Aviation forecast (TAF) for Bob Hope Airport

Retrieved 2021/02/27 06:42 UTC (0 seconds ago):

TAF KBUR 270540Z 2706/2806 34007KT P6SM SKC FM270900 VRB03KT P6SM SKC FM271800 02008KT P6SM SKC FM272200 17008KT P6SM SKC FM280300 34007KT P6SM SKC